Time;durP1;ratioP1;P1;durP2;ratioP2;P2;SDS_P1;SDS_P2;PMS_P1;PMS_P2;Temp;Humidity;BMP_temperature;BMP_pressure;BME280_temperature;BME280_humidity;BME280_pressure;Samples;Min_cycle;Max_cycle;Signal;HPM_P1;HPM_P2
2021/10/16 00:01:36;;;;;;;5.57;3.30;;;17.90;91.00;;;;;;4226852;28;20056;-72
2021/10/16 00:03:41;;;;;;;3.85;2.90;;;17.80;91.00;;;;;;4245122;28;20143;-68
2021/10/16 00:05:49;;;;;;;4.82;3.28;;;17.80;90.90;;;;;;4246654;27;20059;-69
2021/10/16 00:07:52;;;;;;;4.43;2.80;;;17.80;91.00;;;;;;4248394;27;20124;-69
2021/10/16 00:09:55;;;;;;;5.20;3.00;;;17.80;91.00;;;;;;4248062;27;20051;-70
2021/10/16 00:12:03;;;;;;;3.83;2.88;;;17.80;91.00;;;;;;4248552;27;20612;-75
2021/10/16 00:14:11;;;;;;;4.57;3.15;;;17.80;91.00;;;;;;4248178;27;20415;-70
2021/10/16 00:16:16;;;;;;;4.55;3.17;;;17.80;91.00;;;;;;4248080;27;20047;-74
2021/10/16 00:18:24;;;;;;;4.55;2.95;;;17.80;91.00;;;;;;4248099;27;20124;-70
2021/10/16 00:20:33;;;;;;;5.00;2.90;;;17.80;90.90;;;;;;4247970;27;20506;-69
2021/10/16 00:22:41;;;;;;;4.07;2.95;;;17.80;91.00;;;;;;4248003;27;20055;-74
2021/10/16 00:24:44;;;;;;;4.53;3.17;;;17.80;91.00;;;;;;4247832;27;20043;-74
2021/10/16 00:26:51;;;;;;;5.63;3.50;;;17.80;91.00;;;;;;4248138;27;20050;-69
2021/10/16 00:28:59;;;;;;;6.30;3.45;;;17.80;91.00;;;;;;4248110;27;20079;-71
2021/10/16 00:31:02;;;;;;;5.80;3.45;;;17.80;91.00;;;;;;4248029;27;20057;-69
2021/10/16 00:33:10;;;;;;;4.55;3.38;;;17.80;91.00;;;;;;4248322;27;20111;-73
2021/10/16 00:35:14;;;;;;;5.15;3.13;;;17.80;91.00;;;;;;4248387;27;20043;-69
2021/10/16 00:37:24;;;;;;;6.57;4.00;;;17.70;90.90;;;;;;4247938;27;20058;-73
2021/10/16 00:39:32;;;;;;;5.68;3.75;;;17.70;90.90;;;;;;4248390;27;20054;-73
2021/10/16 00:41:40;;;;;;;6.07;3.63;;;17.70;90.90;;;;;;4248036;27;20441;-70
2021/10/16 00:44:08;;;;;;;7.45;3.97;;;17.70;90.90;;;;;;4248922;27;20108;-74
2021/10/16 00:46:11;;;;;;;5.90;3.47;;;17.70;90.90;;;;;;4247451;27;20051;-74
2021/10/16 00:48:14;;;;;;;4.97;3.63;;;17.70;90.80;;;;;;4247869;27;20510;-73
2021/10/16 00:50:23;;;;;;;4.70;3.38;;;17.70;90.90;;;;;;4229985;27;20048;-71
2021/10/16 00:52:32;;;;;;;5.07;3.58;;;17.70;90.80;;;;;;4247460;27;20047;-74
2021/10/16 00:54:41;;;;;;;5.38;3.70;;;17.70;91.00;;;;;;4230268;27;20063;-73
2021/10/16 00:56:51;;;;;;;5.20;3.65;;;17.70;90.90;;;;;;4247326;27;20059;-74
2021/10/16 00:58:59;;;;;;;6.03;3.80;;;17.70;90.90;;;;;;4247377;27;20047;-74
2021/10/16 01:01:07;;;;;;;6.80;4.03;;;17.70;90.90;;;;;;4247202;27;20104;-73
2021/10/16 01:03:11;;;;;;;4.90;3.67;;;17.70;90.80;;;;;;4247404;27;20088;-75
2021/10/16 01:05:19;;;;;;;5.95;3.78;;;17.70;90.90;;;;;;4247452;27;20047;-75
2021/10/16 01:07:22;;;;;;;6.88;3.72;;;17.70;90.90;;;;;;4247179;27;20427;-68
2021/10/16 01:09:31;;;;;;;5.78;3.80;;;17.70;90.80;;;;;;4230496;28;20055;-74
2021/10/16 01:11:35;;;;;;;10.60;4.53;;;17.70;90.80;;;;;;4238491;27;20047;-71
2021/10/16 01:13:43;;;;;;;7.05;3.80;;;17.70;90.90;;;;;;4247011;27;20051;-74
2021/10/16 01:15:50;;;;;;;4.47;3.53;;;17.70;90.80;;;;;;4247055;27;20055;-72
2021/10/16 01:17:55;;;;;;;4.40;3.03;;;17.60;90.80;;;;;;4246220;27;20620;-74
2021/10/16 01:20:06;;;;;;;5.00;3.42;;;17.60;90.70;;;;;;4247470;27;20384;-73
2021/10/16 01:22:16;;;;;;;5.55;3.42;;;17.70;90.70;;;;;;4245864;27;20104;-74
2021/10/16 01:24:24;;;;;;;4.47;3.03;;;17.70;90.60;;;;;;4246794;27;20055;-74
2021/10/16 01:26:28;;;;;;;6.20;3.22;;;17.70;90.60;;;;;;4247597;27;20051;-73
2021/10/16 01:28:32;;;;;;;3.53;3.05;;;17.70;90.70;;;;;;4247470;27;20051;-73
2021/10/16 01:30:35;;;;;;;5.25;3.13;;;17.70;90.60;;;;;;4247416;27;20415;-72
2021/10/16 01:32:43;;;;;;;4.03;3.08;;;17.70;90.70;;;;;;4229580;27;20047;-72
2021/10/16 01:34:51;;;;;;;5.13;2.88;;;17.70;90.60;;;;;;4246672;27;20058;-74
2021/10/16 01:36:58;;;;;;;5.10;3.10;;;17.60;90.70;;;;;;4247032;27;20459;-69
2021/10/16 01:39:08;;;;;;;5.50;3.58;;;17.60;90.60;;;;;;4246530;27;20054;-73
2021/10/16 01:41:16;;;;;;;3.63;2.78;;;17.60;90.60;;;;;;4246601;27;20485;-73
2021/10/16 01:43:19;;;;;;;4.15;3.13;;;17.60;90.60;;;;;;4246326;27;20061;-73
2021/10/16 01:45:22;;;;;;;5.88;3.33;;;17.60;90.70;;;;;;4246668;27;20047;-74
2021/10/16 01:47:30;;;;;;;5.38;2.60;;;17.60;90.70;;;;;;4247022;27;20043;-72
2021/10/16 01:49:38;;;;;;;5.32;3.10;;;17.60;90.70;;;;;;4247171;27;20058;-75
2021/10/16 01:51:48;;;;;;;5.30;3.40;;;17.60;90.70;;;;;;4246998;27;20065;-75
2021/10/16 01:53:56;;;;;;;2.90;2.45;;;17.60;90.70;;;;;;4229206;28;20100;-73
2021/10/16 01:56:00;;;;;;;6.05;2.92;;;17.60;90.70;;;;;;4247951;27;20047;-72
2021/10/16 01:58:09;;;;;;;4.53;2.70;;;17.60;90.70;;;;;;4247494;27;20605;-75
2021/10/16 02:00:17;;;;;;;5.60;3.00;;;17.60;90.60;;;;;;4247163;27;20080;-69
2021/10/16 02:02:25;;;;;;;4.25;2.97;;;17.60;90.70;;;;;;4247037;27;20668;-74
2021/10/16 02:04:28;;;;;;;6.18;2.95;;;17.60;90.70;;;;;;4228746;28;20051;-71
2021/10/16 02:06:36;;;;;;;4.80;2.92;;;17.60;90.70;;;;;;4229589;27;20051;-73
2021/10/16 02:08:44;;;;;;;8.20;3.30;;;17.60;90.70;;;;;;4246344;27;20418;-74
2021/10/16 02:10:47;;;;;;;5.90;3.35;;;17.50;90.60;;;;;;4246873;27;20066;-72
2021/10/16 02:12:52;;;;;;;4.85;2.90;;;17.60;90.70;;;;;;4246426;27;20066;-72
2021/10/16 02:14:55;;;;;;;4.55;3.03;;;17.50;90.60;;;;;;4243017;27;20043;-73
2021/10/16 02:16:58;;;;;;;4.15;2.72;;;17.50;90.60;;;;;;4246193;27;20117;-74
2021/10/16 02:19:05;;;;;;;3.83;2.47;;;17.50;90.60;;;;;;4246273;27;20054;-73
2021/10/16 02:21:08;;;;;;;4.28;2.83;;;17.50;90.60;;;;;;4246374;27;20055;-73
2021/10/16 02:23:16;;;;;;;4.22;2.80;;;17.50;90.60;;;;;;4246133;27;20058;-72
2021/10/16 02:25:24;;;;;;;5.00;2.83;;;17.50;90.60;;;;;;4246279;27;20047;-74
2021/10/16 02:27:27;;;;;;;4.32;2.80;;;17.50;90.60;;;;;;4245871;27;20055;-70
2021/10/16 02:29:37;;;;;;;5.30;3.03;;;17.50;90.60;;;;;;4245481;27;20111;-74
2021/10/16 02:31:40;;;;;;;5.18;2.85;;;17.50;90.60;;;;;;4245880;27;20697;-73
2021/10/16 02:33:49;;;;;;;6.28;3.17;;;17.50;90.60;;;;;;4246002;27;20054;-73
2021/10/16 02:35:57;;;;;;;4.22;2.58;;;17.50;90.60;;;;;;4245763;27;20054;-70
2021/10/16 02:38:06;;;;;;;4.60;2.88;;;17.50;90.60;;;;;;4228711;27;20633;-71
2021/10/16 02:40:10;;;;;;;5.18;3.00;;;17.50;90.50;;;;;;4245392;27;20062;-74
2021/10/16 02:42:13;;;;;;;6.15;3.30;;;17.50;90.60;;;;;;4245898;27;20050;-74
2021/10/16 02:44:21;;;;;;;3.95;2.60;;;17.50;90.50;;;;;;4228344;28;20389;-74
2021/10/16 02:46:30;;;;;;;3.63;2.88;;;17.50;90.50;;;;;;4235390;27;20100;-71
2021/10/16 02:48:38;;;;;;;3.95;3.03;;;17.50;90.50;;;;;;4228607;28;20492;-68
2021/10/16 02:50:45;;;;;;;5.05;2.70;;;17.50;90.50;;;;;;4245286;28;20120;-72
2021/10/16 02:52:48;;;;;;;4.18;2.63;;;17.50;90.50;;;;;;4245945;28;20054;-72
2021/10/16 02:54:52;;;;;;;4.88;3.05;;;17.50;90.50;;;;;;4245589;28;20043;-74
2021/10/16 02:57:00;;;;;;;5.55;3.00;;;17.50;90.50;;;;;;4245688;28;20047;-74
2021/10/16 02:59:02;;;;;;;4.38;2.67;;;17.50;90.40;;;;;;4246193;28;20047;-71
2021/10/16 03:01:10;;;;;;;4.15;2.67;;;17.40;90.40;;;;;;4245689;28;20062;-75
2021/10/16 03:03:15;;;;;;;4.55;2.83;;;17.40;90.30;;;;;;4228025;28;20052;-74
2021/10/16 03:05:18;;;;;;;;;;;17.40;90.30;;;;;;4245960;28;20059;-71
2021/10/16 03:07:26;;;;;;;3.70;2.53;;;17.40;90.30;;;;;;4245789;28;19925;-72
2021/10/16 03:09:29;;;;;;;4.43;2.60;;;17.40;90.40;;;;;;4245744;28;20457;-75
2021/10/16 03:11:37;;;;;;;6.30;2.65;;;17.40;90.30;;;;;;4245304;28;20056;-75
2021/10/16 03:13:40;;;;;;;3.60;2.38;;;17.40;90.40;;;;;;4245931;28;20419;-70
2021/10/16 03:15:48;;;;;;;4.78;2.38;;;17.40;90.30;;;;;;4245383;28;20050;-73
2021/10/16 03:17:55;;;;;;;4.22;2.50;;;17.40;90.40;;;;;;4245380;28;20051;-73
2021/10/16 03:20:06;;;;;;;4.07;2.40;;;17.40;90.30;;;;;;4245395;28;20051;-72
2021/10/16 03:22:09;;;;;;;4.63;2.78;;;17.40;90.30;;;;;;4241898;28;20055;-70
2021/10/16 03:24:12;;;;;;;4.47;2.72;;;17.40;90.30;;;;;;4245681;28;20103;-72
2021/10/16 03:26:20;;;;;;;4.53;2.55;;;17.40;90.30;;;;;;4245233;28;20428;-75
2021/10/16 03:28:23;;;;;;;3.63;2.20;;;17.40;90.30;;;;;;4245507;28;20063;-69
2021/10/16 03:30:26;;;;;;;3.33;2.53;;;17.40;90.30;;;;;;4245357;28;20059;-71
2021/10/16 03:32:34;;;;;;;3.97;2.30;;;17.40;90.30;;;;;;4242501;28;20055;-72
2021/10/16 03:34:37;;;;;;;6.85;2.80;;;17.40;90.30;;;;;;4245573;28;20445;-72
2021/10/16 03:36:47;;;;;;;3.15;2.55;;;17.40;90.30;;;;;;4244970;28;20437;-70
2021/10/16 03:38:55;;;;;;;3.72;2.28;;;17.40;90.20;;;;;;4245239;27;20503;-75
2021/10/16 03:41:02;;;;;;;3.90;2.25;;;17.40;90.50;;;;;;4247267;27;20120;-69
2021/10/16 03:43:06;;;;;;;3.47;2.40;;;17.40;90.20;;;;;;4230690;28;20055;-74
2021/10/16 03:45:13;;;;;;;5.22;2.45;;;17.40;90.20;;;;;;4249074;27;20403;-68
2021/10/16 03:47:16;;;;;;;3.03;2.30;;;17.40;90.30;;;;;;4248507;27;20108;-74
2021/10/16 03:49:24;;;;;;;3.80;2.60;;;17.40;90.20;;;;;;4248693;27;20043;-74
2021/10/16 03:51:27;;;;;;;4.93;2.67;;;17.40;90.20;;;;;;4230516;28;20109;-76
2021/10/16 03:53:36;;;;;;;4.20;2.70;;;17.40;90.30;;;;;;4248666;27;20051;-70
2021/10/16 03:55:45;;;;;;;4.75;2.58;;;17.40;90.20;;;;;;4248629;27;20058;-71
2021/10/16 03:57:53;;;;;;;5.30;2.53;;;17.40;90.30;;;;;;4248213;27;20051;-68
2021/10/16 03:59:56;;;;;;;3.17;2.25;;;17.30;90.30;;;;;;4248274;27;20108;-75
2021/10/16 04:02:05;;;;;;;3.55;2.42;;;17.40;90.30;;;;;;4248084;27;20051;-67
2021/10/16 04:04:12;;;;;;;4.38;2.78;;;17.40;90.20;;;;;;4248384;27;20059;-74
2021/10/16 04:06:15;;;;;;;3.63;2.28;;;17.40;90.30;;;;;;4248410;27;20058;-75
2021/10/16 04:08:18;;;;;;;5.47;2.85;;;17.30;90.30;;;;;;4247830;27;20051;-76
2021/10/16 04:10:27;;;;;;;4.28;2.45;;;17.40;90.30;;;;;;4250006;27;20054;-69
2021/10/16 04:12:35;;;;;;;3.28;1.92;;;17.30;90.30;;;;;;4250505;27;20396;-75
2021/10/16 04:14:43;;;;;;;4.05;2.53;;;17.40;90.30;;;;;;4249517;27;20063;-76
2021/10/16 04:16:51;;;;;;;3.83;2.15;;;17.30;90.20;;;;;;4248522;27;20487;-73
2021/10/16 04:18:54;;;;;;;5.70;2.67;;;17.30;90.20;;;;;;4247726;27;20059;-74
2021/10/16 04:20:57;;;;;;;5.30;2.60;;;17.30;90.20;;;;;;4248990;27;20051;-74
2021/10/16 04:23:05;;;;;;;4.68;2.10;;;17.30;90.20;;;;;;4248849;27;20051;-76
2021/10/16 04:25:13;;;;;;;3.00;2.30;;;17.30;90.20;;;;;;4231130;27;20635;-73
2021/10/16 04:27:23;;;;;;;3.53;2.22;;;17.30;90.20;;;;;;4248697;27;20058;-73
2021/10/16 04:29:26;;;;;;;3.10;2.20;;;17.30;90.20;;;;;;4248760;27;20448;-72
2021/10/16 04:31:29;;;;;;;5.28;2.58;;;17.30;90.10;;;;;;4249082;27;20051;-73
2021/10/16 04:33:37;;;;;;;3.15;2.50;;;17.30;90.10;;;;;;4248769;27;20047;-75
2021/10/16 04:35:45;;;;;;;6.18;2.58;;;17.30;90.20;;;;;;4231558;27;20055;-75
2021/10/16 04:37:53;;;;;;;4.55;2.80;;;17.30;90.20;;;;;;4248337;27;20107;-75
2021/10/16 04:39:58;;;;;;;5.05;2.88;;;17.30;90.20;;;;;;4248028;27;20050;-74
2021/10/16 04:42:07;;;;;;;3.35;2.30;;;17.30;90.20;;;;;;4248484;27;20063;-69
2021/10/16 04:44:11;;;;;;;3.60;2.70;;;17.30;90.10;;;;;;4247246;27;20051;-74
2021/10/16 04:46:14;;;;;;;5.03;2.47;;;17.30;90.10;;;;;;4248006;27;20094;-75
2021/10/16 04:48:22;;;;;;;4.07;2.47;;;17.30;90.10;;;;;;4247685;27;20043;-73
2021/10/16 04:50:25;;;;;;;4.18;2.45;;;17.30;90.10;;;;;;4229329;28;20052;-75
2021/10/16 04:52:28;;;;;;;3.50;2.42;;;17.30;90.10;;;;;;4247255;27;20059;-75
2021/10/16 04:54:36;;;;;;;4.18;2.13;;;17.30;90.10;;;;;;4247329;27;20061;-71
2021/10/16 04:56:44;;;;;;;4.15;2.40;;;17.30;90.10;;;;;;4247315;27;20449;-71
2021/10/16 04:58:52;;;;;;;5.68;2.85;;;17.30;90.00;;;;;;4247398;27;20100;-71
2021/10/16 05:00:56;;;;;;;4.35;2.35;;;17.30;90.00;;;;;;4247425;27;20051;-72
2021/10/16 05:03:05;;;;;;;4.22;2.90;;;17.30;90.00;;;;;;4230365;27;20503;-68
2021/10/16 05:05:08;;;;;;;5.70;2.65;;;17.30;90.10;;;;;;4247279;27;20058;-72
2021/10/16 05:07:16;;;;;;;4.07;2.67;;;17.30;90.10;;;;;;4247486;27;20054;-74
2021/10/16 05:09:24;;;;;;;4.65;2.60;;;17.20;90.00;;;;;;4247176;27;20063;-73
2021/10/16 05:11:31;;;;;;;4.85;2.30;;;17.20;90.10;;;;;;4230105;27;20059;-71
2021/10/16 05:13:34;;;;;;;4.47;2.60;;;17.20;90.00;;;;;;4247333;27;20051;-74
2021/10/16 05:15:42;;;;;;;3.55;2.42;;;17.20;90.00;;;;;;4247203;27;20055;-70
2021/10/16 05:17:47;;;;;;;3.90;2.40;;;17.20;90.00;;;;;;4230648;28;20059;-70
2021/10/16 05:19:55;;;;;;;3.85;2.50;;;17.20;90.00;;;;;;4238938;27;20376;-71
2021/10/16 05:21:58;;;;;;;4.10;2.42;;;17.20;90.00;;;;;;4247106;27;20051;-70
2021/10/16 05:24:06;;;;;;;4.88;2.70;;;17.20;90.00;;;;;;4246942;27;20061;-71
2021/10/16 05:26:13;;;;;;;4.28;2.58;;;17.20;90.00;;;;;;4246856;27;20054;-74
2021/10/16 05:28:21;;;;;;;5.88;2.80;;;17.20;90.00;;;;;;4229911;27;20457;-68
2021/10/16 05:30:24;;;;;;;3.83;2.53;;;17.20;90.00;;;;;;4246492;27;20051;-69
2021/10/16 05:32:32;;;;;;;3.53;2.80;;;17.20;90.00;;;;;;4247198;27;20054;-74
2021/10/16 05:34:37;;;;;;;3.85;2.20;;;17.20;90.20;;;;;;4246724;27;20056;-70
2021/10/16 05:36:44;;;;;;;3.72;2.20;;;17.20;90.00;;;;;;4244319;27;20055;-74
2021/10/16 05:38:48;;;;;;;5.05;2.60;;;17.20;89.90;;;;;;4246861;27;20062;-70
2021/10/16 05:40:51;;;;;;;4.05;2.40;;;17.20;90.00;;;;;;4246645;27;20055;-71
2021/10/16 05:42:54;;;;;;;4.07;2.38;;;17.20;89.90;;;;;;4246626;27;20430;-74
2021/10/16 05:45:02;;;;;;;4.65;2.80;;;17.20;89.90;;;;;;4246539;27;20104;-71
2021/10/16 05:47:10;;;;;;;5.60;3.00;;;17.20;90.00;;;;;;4246918;27;20051;-69
2021/10/16 05:49:14;;;;;;;3.53;2.65;;;17.20;90.00;;;;;;4228769;28;20066;-69
2021/10/16 05:51:18;;;;;;;5.57;3.47;;;17.20;90.00;;;;;;4246598;27;20051;-70
2021/10/16 05:53:26;;;;;;;5.63;2.67;;;17.20;90.00;;;;;;4246362;27;20474;-70
2021/10/16 05:55:34;;;;;;;5.55;2.67;;;17.20;89.90;;;;;;4228070;28;20040;-70
2021/10/16 05:57:42;;;;;;;5.00;3.00;;;17.20;90.00;;;;;;4246582;27;20634;-68
2021/10/16 05:59:45;;;;;;;5.47;3.20;;;17.20;89.90;;;;;;4246754;27;20050;-72
2021/10/16 06:01:48;;;;;;;6.43;3.10;;;17.10;89.90;;;;;;4246717;27;20039;-68
2021/10/16 06:03:56;;;;;;;4.70;3.05;;;17.10;89.90;;;;;;4228412;27;20055;-71
2021/10/16 06:06:04;;;;;;;3.03;2.58;;;17.10;89.90;;;;;;4246697;27;20051;-74
2021/10/16 06:08:14;;;;;;;4.13;2.72;;;17.10;89.90;;;;;;4235558;27;20062;-71
2021/10/16 06:10:17;;;;;;;4.63;2.63;;;17.10;89.90;;;;;;4246238;27;20059;-71
2021/10/16 06:12:20;;;;;;;5.28;2.65;;;17.10;89.80;;;;;;4245922;27;20054;-74
2021/10/16 06:14:23;;;;;;;5.13;3.08;;;17.20;89.80;;;;;;4245956;27;20116;-72
2021/10/16 06:16:26;;;;;;;5.00;3.17;;;17.10;89.80;;;;;;4228090;28;20446;-71
2021/10/16 06:18:34;;;;;;;3.40;2.40;;;17.10;89.70;;;;;;4235778;27;20051;-68
2021/10/16 06:20:37;;;;;;;5.50;2.97;;;17.10;89.70;;;;;;4245863;27;20058;-69
2021/10/16 06:22:45;;;;;;;6.38;3.10;;;17.10;90.10;;;;;;4245828;27;20104;-69
2021/10/16 06:24:51;;;;;;;7.03;3.53;;;17.10;89.80;;;;;;4246102;27;20051;-72
2021/10/16 06:26:54;;;;;;;5.60;3.33;;;17.10;89.90;;;;;;4245824;27;20055;-69
2021/10/16 06:29:02;;;;;;;5.05;2.90;;;17.10;89.80;;;;;;4246058;27;20052;-75
2021/10/16 06:31:05;;;;;;;6.53;2.97;;;17.10;89.80;;;;;;4246218;27;20055;-73
2021/10/16 06:33:13;;;;;;;5.90;3.17;;;17.10;89.80;;;;;;4245525;27;20491;-74
2021/10/16 06:35:17;;;;;;;6.05;2.85;;;17.10;89.80;;;;;;4246104;27;20055;-74
2021/10/16 06:37:25;;;;;;;4.55;2.65;;;17.10;89.70;;;;;;4228479;27;20055;-69
2021/10/16 06:39:28;;;;;;;5.40;3.05;;;17.10;89.70;;;;;;4246131;27;20051;-74
2021/10/16 06:41:37;;;;;;;5.18;2.60;;;17.10;89.70;;;;;;4245923;27;20099;-74
2021/10/16 06:43:45;;;;;;;5.32;2.85;;;17.10;89.70;;;;;;4245075;27;20055;-73
2021/10/16 06:45:49;;;;;;;4.00;2.97;;;17.10;89.60;;;;;;4246753;27;20055;-72
2021/10/16 06:47:56;;;;;;;4.72;3.30;;;17.10;89.80;;;;;;4246137;27;20073;-70
2021/10/16 06:50:05;;;;;;;5.03;3.45;;;17.10;89.80;;;;;;4228766;28;20147;-75
2021/10/16 06:52:13;;;;;;;3.92;2.75;;;17.10;89.80;;;;;;4245875;27;20054;-70
2021/10/16 06:54:17;;;;;;;5.68;3.47;;;17.10;89.70;;;;;;4245766;28;20048;-73
2021/10/16 06:56:26;;;;;;;7.10;3.88;;;17.10;89.70;;;;;;4245816;28;20051;-74
2021/10/16 06:58:35;;;;;;;5.32;3.13;;;17.10;89.70;;;;;;4245504;28;20419;-74
2021/10/16 07:00:43;;;;;;;9.27;3.67;;;17.10;89.70;;;;;;4245977;28;20414;-75
2021/10/16 07:02:51;;;;;;;5.10;3.35;;;17.10;89.70;;;;;;4245649;28;20043;-74
2021/10/16 07:04:54;;;;;;;7.25;3.92;;;17.10;89.70;;;;;;4245524;28;20043;-72
2021/10/16 07:07:02;;;;;;;6.72;3.90;;;17.10;89.70;;;;;;4246297;28;20411;-75
2021/10/16 07:09:05;;;;;;;4.75;2.95;;;17.10;89.70;;;;;;4245755;28;20048;-73
2021/10/16 07:11:13;;;;;;;8.68;4.03;;;17.10;89.70;;;;;;4246270;28;20062;-74
2021/10/16 07:13:21;;;;;;;7.38;3.58;;;17.10;89.60;;;;;;4246477;28;20044;-71
2021/10/16 07:15:25;;;;;;;4.97;3.15;;;17.10;89.60;;;;;;4249744;27;20450;-72
2021/10/16 07:17:28;;;;;;;4.93;2.92;;;17.10;89.70;;;;;;4232286;28;20094;-69
2021/10/16 07:19:36;;;;;;;6.47;3.00;;;17.10;89.60;;;;;;4249107;27;20453;-71
2021/10/16 07:21:44;;;;;;;6.10;2.83;;;17.10;89.70;;;;;;4249539;27;20047;-75
2021/10/16 07:23:47;;;;;;;8.10;3.97;;;17.10;89.60;;;;;;4248510;27;20112;-71
2021/10/16 07:25:56;;;;;;;5.50;3.22;;;17.00;89.60;;;;;;4231988;27;20502;-69
2021/10/16 07:28:00;;;;;;;5.75;3.50;;;17.10;89.70;;;;;;4249156;27;20055;-75
2021/10/16 07:30:08;;;;;;;7.90;3.58;;;17.10;89.70;;;;;;4249181;27;20058;-75
2021/10/16 07:32:18;;;;;;;6.28;3.00;;;17.00;89.60;;;;;;4232000;28;20052;-72
2021/10/16 07:34:25;;;;;;;4.88;2.90;;;17.10;89.70;;;;;;4240708;27;20051;-73
2021/10/16 07:36:38;;;;;;;6.88;3.88;;;17.00;89.60;;;;;;4248691;27;20055;-69
2021/10/16 07:38:45;;;;;;;6.68;3.42;;;17.10;89.70;;;;;;4248181;27;20056;-71
2021/10/16 07:40:48;;;;;;;6.88;3.25;;;17.10;89.60;;;;;;4248536;27;20066;-72
2021/10/16 07:42:56;;;;;;;8.63;3.38;;;17.00;89.50;;;;;;4248595;27;20063;-73
2021/10/16 07:45:05;;;;;;;5.00;2.75;;;17.00;89.50;;;;;;4248435;27;20399;-75
2021/10/16 07:47:08;;;;;;;6.10;3.58;;;17.10;89.50;;;;;;4248673;27;20112;-70
2021/10/16 07:49:17;;;;;;;7.40;3.67;;;17.10;89.40;;;;;;4248575;27;20043;-69
2021/10/16 07:51:25;;;;;;;6.88;3.58;;;17.10;89.40;;;;;;4248593;27;20171;-75
2021/10/16 07:53:33;;;;;;;4.40;2.85;;;17.00;89.30;;;;;;4248399;27;20403;-70
2021/10/16 07:55:36;;;;;;;7.13;3.50;;;17.10;89.40;;;;;;4248339;27;20453;-74
2021/10/16 07:57:44;;;;;;;5.25;3.42;;;17.00;89.30;;;;;;4248537;27;20055;-71
2021/10/16 07:59:52;;;;;;;6.75;3.45;;;17.10;89.30;;;;;;4248061;27;20427;-71
2021/10/16 08:01:55;;;;;;;5.82;3.22;;;17.10;89.30;;;;;;4237085;27;20556;-69
2021/10/16 08:04:03;;;;;;;5.28;2.90;;;17.10;89.30;;;;;;4248573;27;20443;-73
2021/10/16 08:06:07;;;;;;;5.28;2.92;;;17.10;89.30;;;;;;4248137;27;20050;-70
2021/10/16 08:08:15;;;;;;;4.63;2.80;;;17.10;89.30;;;;;;4248094;27;20058;-72
2021/10/16 08:10:24;;;;;;;5.28;3.05;;;17.10;89.20;;;;;;4248297;27;20051;-71
2021/10/16 08:12:27;;;;;;;4.70;2.90;;;17.10;89.20;;;;;;4248833;27;20120;-69
2021/10/16 08:14:34;;;;;;;5.03;2.92;;;17.10;89.10;;;;;;4248452;27;20057;-69
2021/10/16 08:16:42;;;;;;;7.65;2.85;;;17.10;89.10;;;;;;4248125;27;20058;-71
2021/10/16 08:18:45;;;;;;;6.68;3.28;;;17.10;89.10;;;;;;4248039;27;20535;-72
2021/10/16 08:20:53;;;;;;;4.15;2.60;;;17.10;89.00;;;;;;4247685;27;20055;-74
2021/10/16 08:22:58;;;;;;;6.20;2.85;;;17.10;89.00;;;;;;4248124;27;20051;-74
2021/10/16 08:25:06;;;;;;;5.45;2.97;;;17.10;89.00;;;;;;4247652;27;20503;-70
2021/10/16 08:27:14;;;;;;;7.30;3.88;;;17.10;89.30;;;;;;4247192;27;20047;-73
2021/10/16 08:29:17;;;;;;;9.13;4.22;;;17.10;89.30;;;;;;4249160;27;20058;-69
2021/10/16 08:31:21;;;;;;;26.75;15.10;;;17.10;89.90;;;;;;4251483;27;20534;-70
2021/10/16 08:33:24;;;;;;;27.30;13.13;;;17.20;90.20;;;;;;4250594;27;20085;-71
2021/10/16 08:35:28;;;;;;;17.70;11.18;;;17.20;90.00;;;;;;4247599;27;20081;-70
2021/10/16 08:37:36;;;;;;;18.08;9.73;;;17.20;90.30;;;;;;4249340;27;20054;-69
2021/10/16 08:39:41;;;;;;;16.17;8.93;;;17.20;90.90;;;;;;4247501;27;20561;-73
2021/10/16 08:41:44;;;;;;;18.45;8.80;;;17.30;90.60;;;;;;4247454;27;20063;-73
2021/10/16 08:43:52;;;;;;;16.00;8.23;;;17.20;90.50;;;;;;4248101;27;20132;-69
2021/10/16 08:46:03;;;;;;;13.00;7.05;;;17.30;90.60;;;;;;4248462;27;20058;-66
2021/10/16 08:48:12;;;;;;;11.98;6.13;;;17.30;90.60;;;;;;4245297;27;20578;-69
2021/10/16 08:50:16;;;;;;;9.00;5.53;;;17.30;90.10;;;;;;4247503;27;20047;-70
2021/10/16 08:52:24;;;;;;;13.25;5.50;;;17.30;89.90;;;;;;4247068;27;20461;-71
2021/10/16 08:54:35;;;;;;;12.65;5.60;;;17.30;89.50;;;;;;4247309;27;20059;-68
2021/10/16 08:56:39;;;;;;;10.27;6.03;;;17.30;89.40;;;;;;4247257;27;20058;-69
2021/10/16 08:58:47;;;;;;;8.48;5.32;;;17.30;89.30;;;;;;4236034;27;20795;-70
2021/10/16 09:00:55;;;;;;;10.05;5.18;;;17.30;89.10;;;;;;4247000;27;20070;-70
2021/10/16 09:03:14;;;;;;;10.40;5.10;;;17.30;89.60;;;;;;4248680;27;20080;-71
2021/10/16 09:05:18;;;;;;;15.80;5.53;;;17.40;89.80;;;;;;4247021;27;20051;-71
2021/10/16 09:07:26;;;;;;;12.15;4.97;;;17.30;89.30;;;;;;4244993;27;20067;-68
2021/10/16 09:09:31;;;;;;;15.35;5.38;;;17.40;89.20;;;;;;4241973;27;20171;-68
2021/10/16 09:11:35;;;;;;;16.63;5.80;;;17.40;89.00;;;;;;4255051;27;20578;-71
2021/10/16 09:13:45;;;;;;;15.68;5.18;;;17.40;89.50;;;;;;4242727;27;20104;-69
2021/10/16 09:15:48;;;;;;;15.00;5.13;;;17.50;89.30;;;;;;4247339;27;20142;-67
2021/10/16 09:18:01;;;;;;;11.93;4.90;;;17.50;89.30;;;;;;4249574;27;20054;-71
2021/10/16 09:20:09;;;;;;;15.88;4.60;;;17.50;89.00;;;;;;4223832;28;20519;-69
2021/10/16 09:22:20;;;;;;;17.45;5.43;;;17.50;89.10;;;;;;4240907;27;20071;-69
2021/10/16 09:24:24;;;;;;;16.88;4.93;;;17.50;89.30;;;;;;4246681;27;20059;-70
2021/10/16 09:26:27;;;;;;;13.00;6.05;;;17.50;89.40;;;;;;4245677;27;20088;-67
2021/10/16 09:28:37;;;;;;;12.13;5.00;;;17.50;89.40;;;;;;4246505;27;20117;-71
2021/10/16 09:30:46;;;;;;;10.32;4.22;;;17.50;88.80;;;;;;4229246;27;20047;-68
2021/10/16 09:32:55;;;;;;;11.25;4.55;;;17.50;88.60;;;;;;4228296;28;20074;-70
2021/10/16 09:35:05;;;;;;;12.13;5.05;;;17.50;88.50;;;;;;4235557;27;20087;-69
2021/10/16 09:37:09;;;;;;;;;;;17.50;88.50;;;;;;4247200;27;20047;-70
2021/10/16 09:39:16;;;;;;;11.50;4.35;;;17.50;88.40;;;;;;4228155;28;19919;-69
2021/10/16 09:41:24;;;;;;;14.02;3.92;;;17.50;88.50;;;;;;4231743;27;20548;-70
2021/10/16 09:43:27;;;;;;;9.32;3.75;;;17.50;88.40;;;;;;4235835;27;20073;-70
2021/10/16 09:45:32;;;;;;;13.15;3.95;;;17.60;88.40;;;;;;4246295;27;20146;-70
2021/10/16 09:47:37;;;;;;;13.23;3.65;;;17.50;88.30;;;;;;4246604;27;20059;-70
2021/10/16 09:49:48;;;;;;;18.70;4.28;;;17.50;88.20;;;;;;4244738;27;20062;-69
2021/10/16 09:51:51;;;;;;;15.45;4.18;;;17.60;88.20;;;;;;4246150;27;20072;-71
2021/10/16 09:54:06;;;;;;;13.63;3.75;;;17.50;88.10;;;;;;4246182;27;20055;-72
2021/10/16 09:56:11;;;;;;;18.63;3.97;;;17.60;88.80;;;;;;4246510;27;20051;-69
2021/10/16 09:58:16;;;;;;;;;;;17.60;88.20;;;;;;4247025;27;20112;-69
2021/10/16 10:00:19;;;;;;;22.75;4.53;;;17.60;88.20;;;;;;4244625;27;19931;-69
2021/10/16 10:02:29;;;;;;;17.83;5.70;;;17.60;88.20;;;;;;4245846;27;20099;-70
2021/10/16 10:04:36;;;;;;;21.95;4.65;;;17.60;88.20;;;;;;4244453;27;20069;-69
2021/10/16 10:06:40;;;;;;;16.13;4.90;;;17.60;88.20;;;;;;4244824;27;20452;-69
2021/10/16 10:08:44;;;;;;;15.65;4.32;;;17.60;88.80;;;;;;4244669;27;20111;-71
2021/10/16 10:10:48;;;;;;;23.55;4.53;;;17.60;88.10;;;;;;4242611;27;20563;-70
2021/10/16 10:12:56;;;;;;;13.68;3.95;;;17.60;88.10;;;;;;4246050;27;20051;-70
2021/10/16 10:15:05;;;;;;;8.55;4.13;;;17.60;87.90;;;;;;4245721;27;20055;-70
2021/10/16 10:17:18;;;;;;;36.08;5.05;;;17.70;88.00;;;;;;4246178;27;20135;-70
2021/10/16 10:19:22;;;;;;;23.55;4.82;;;17.60;88.00;;;;;;4243451;27;20047;-74
2021/10/16 10:21:31;;;;;;;22.25;4.82;;;17.70;90.10;;;;;;4220747;27;20047;-69
2021/10/16 10:23:50;;;;;;;22.45;4.70;;;17.80;90.20;;;;;;4218381;27;20048;-69
2021/10/16 10:26:25;;;;;;;67.00;6.43;;;17.90;90.20;;;;;;4245287;27;20055;-71
2021/10/16 10:28:53;;;;;;;65.20;6.93;;;17.90;89.80;;;;;;4234096;27;20560;-71
2021/10/16 10:31:13;;;;;;;64.32;7.32;;;18.00;89.30;;;;;;4245128;27;20100;-71
2021/10/16 10:33:21;;;;;;;55.17;6.57;;;18.10;89.00;;;;;;4228799;28;20055;-71
2021/10/16 10:35:26;;;;;;;68.05;6.60;;;18.10;88.90;;;;;;4237473;27;20445;-71
2021/10/16 10:37:40;;;;;;;103.47;8.32;;;18.20;89.30;;;;;;4246713;27;20076;-71
2021/10/16 10:39:54;;;;;;;106.95;8.00;;;18.20;88.80;;;;;;4243626;27;20054;-70
2021/10/16 10:42:23;;;;;;;95.93;9.60;;;18.30;88.70;;;;;;4244343;27;20081;-72
2021/10/16 10:44:40;;;;;;;125.97;10.03;;;18.30;88.20;;;;;;4227516;28;20060;-72
2021/10/16 10:46:43;;;;;;;127.93;9.95;;;18.40;87.90;;;;;;4245457;27;20520;-73
2021/10/16 10:48:47;;;;;;;112.20;9.35;;;18.40;87.30;;;;;;4241128;28;20107;-71
2021/10/16 10:50:58;;;;;;;93.38;9.05;;;18.50;86.80;;;;;;4239574;27;20051;-71
2021/10/16 10:53:10;;;;;;;79.72;7.90;;;18.50;86.60;;;;;;4247336;27;20451;-69
2021/10/16 10:55:14;;;;;;;76.25;7.63;;;18.50;85.60;;;;;;4241450;27;20080;-71
2021/10/16 10:57:51;;;;;;;61.20;7.32;;;18.60;85.20;;;;;;4244636;28;20047;-70
2021/10/16 10:59:58;;;;;;;53.72;6.35;;;18.60;84.80;;;;;;4250023;28;20062;-70